Terminal Aerodrome Forecast
Issued by NWS

Home | Current Version | Previous Version | Graphics & Text | Print | Product List | Glossary On
Versions: 1 2 3 4 5 6 7 8 9 10 11 12 13 14 15 16 17 18 19 20 21 22 23 24 25
000
FTUS43 KBIS 040138 AAB
TAFMOT
TAF AMD
KMOT 040138Z 0402/0424 16009KT P6SM -SN SCT015 OVC035
      TEMPO 0402/0406 5SM -SN BR SCT015 OVC025
     FM040600 26012KT P6SM BKN015 OVC035
     FM041500 26010KT P6SM SCT015 BKN050
     FM042100 22008KT P6SM BKN150=

USA.gov is the U.S. government's official web portal to all federal, state and local government web resources and services.